Tabatinga Airport
SBTT : now visible

Airfield :











YOU CAN JOIN US ON...

 
LOGIN :

Register | Disclaimer

   EN    FR    IT 

 









Legend :    VFR   Marginal VFR   IFR   Intensive IFR   Very Intensive IFR
Visi :
Ceiling :
>= 8 km
>= 3000ft
5 to 8 km
1000 to 3000 ft
1500m to 5 km
500 to 1000 ft
800 to 1500m
200 to 500 ft
< 800m
< 200 ft
Symbols :   Thunderstorms  Fog  Heavy snow  Heavy precipitations  Wind > 20 kt






- Airport Elevation : 279 ft
- IATA code : TBT


SBTT - Tabatinga

CURRENT METAR :
  • 171500Z 30002KT 9999 SCT020 28/23 Q1010

EXPIRED METARs :
  • 171400Z 30004KT 9999 BKN017 26/23 Q1010
  • 171300Z 34002KT 9999 BKN010 25/23 Q1010

TAF TAF SBTT
Valid from the 17 at 12:00 until the 18 at 12:00 UTC


170930Z 1712/1812 27005KT 9999 BKN007 TX29/1719Z TN23/1811Z
BECMG 1713/1715 BKN015
BECMG 1716/1718 SCT020 FEW025TCU
BECMG 1720/1722 SCT020
BECMG 1806/1808 BKN006 RMK PHI



MET'MAP, your aeronautical weather chart ! - Copyright ORBIFLY December 2007 - Disclaimer

ORBIFLY MET'MAP TEAM :

Programming & Development : Alexandra Zaïnal
Concept & Development : Baudouin d'Aumeries
Co-Development & Prog : Marc-Olivier Méhu
Technical & hardware support : Manuel Goepfert

Contact : metmap@orbifly.com




SOURCES & CREDITS :

   NOAA       Earth
Advisory